Time;durP1;ratioP1;P1;durP2;ratioP2;P2;SDS_P1;SDS_P2;PMS_P1;PMS_P2;Temp;Humidity;BMP_temperature;BMP_pressure;BME280_temperature;BME280_humidity;BME280_pressure;Samples;Min_cycle;Max_cycle;Signal;HPM_P1;HPM_P2
2022/05/05 00:01:52;;;;;;;12.02;9.75;;;4.50;84.20;;;;;;5016278;28;20034;-43
2022/05/05 00:04:21;;;;;;;16.20;10.73;;;4.50;84.40;;;;;;4996898;28;20057;-43
2022/05/05 00:06:49;;;;;;;14.85;10.27;;;4.50;84.20;;;;;;5012982;28;20104;-43
2022/05/05 00:09:15;;;;;;;15.98;11.63;;;4.50;84.20;;;;;;5018596;28;20030;-44
2022/05/05 00:14:28;;;;;;;12.02;9.52;;;4.50;84.30;;;;;;5015604;28;20041;-43
2022/05/05 00:16:59;;;;;;;12.70;10.13;;;4.50;84.30;;;;;;5015121;28;20061;-43
2022/05/05 00:19:26;;;;;;;12.73;10.38;;;4.50;84.10;;;;;;5013100;28;20093;-44
2022/05/05 00:21:53;;;;;;;13.35;10.13;;;4.50;84.30;;;;;;5015788;28;20042;-43
2022/05/05 00:24:23;;;;;;;12.00;8.48;;;4.40;84.30;;;;;;5018102;28;20034;-42
2022/05/05 00:26:50;;;;;;;11.88;8.77;;;4.40;84.40;;;;;;5015571;28;20084;-43
2022/05/05 00:29:17;;;;;;;12.27;9.65;;;4.40;84.30;;;;;;5014002;28;20033;-44
2022/05/05 00:31:45;;;;;;;15.80;10.43;;;4.40;84.30;;;;;;5015567;28;20091;-43
2022/05/05 00:34:12;;;;;;;12.85;10.75;;;4.40;84.30;;;;;;5014987;28;20055;-44
2022/05/05 00:36:41;;;;;;;16.15;10.60;;;4.40;84.10;;;;;;5027378;28;20022;-47
2022/05/05 00:39:10;;;;;;;22.33;11.43;;;4.40;84.20;;;;;;5015214;28;20100;-44
2022/05/05 00:41:41;;;;;;;15.48;10.50;;;4.40;84.40;;;;;;5015108;28;20044;-42
2022/05/05 00:44:10;;;;;;;14.38;11.25;;;4.40;84.60;;;;;;5029590;28;20034;-43
2022/05/05 00:46:38;;;;;;;12.30;9.23;;;4.40;84.60;;;;;;5015846;28;20117;-47
2022/05/05 00:49:05;;;;;;;12.95;10.15;;;4.40;84.30;;;;;;5015569;28;20041;-43
2022/05/05 00:51:32;;;;;;;13.77;10.93;;;4.40;84.40;;;;;;5015323;28;20030;-44
2022/05/05 00:54:01;;;;;;;15.20;11.00;;;4.30;84.50;;;;;;5043721;28;20335;-42
2022/05/05 00:56:28;;;;;;;15.10;10.27;;;4.40;84.70;;;;;;5054330;28;20028;-42
2022/05/05 00:58:57;;;;;;;13.75;10.80;;;4.40;84.60;;;;;;5033657;28;20032;-44
2022/05/05 01:01:24;;;;;;;15.43;10.70;;;4.30;84.60;;;;;;5046753;28;20029;-42
2022/05/05 01:03:51;;;;;;;14.40;10.75;;;4.30;84.80;;;;;;5035978;28;20045;-45
2022/05/05 01:06:19;;;;;;;12.88;11.10;;;4.40;84.70;;;;;;5052419;28;20029;-43
2022/05/05 01:08:46;;;;;;;15.07;10.82;;;4.30;84.60;;;;;;5035806;28;20025;-46
2022/05/05 01:11:13;;;;;;;16.83;11.68;;;4.40;84.70;;;;;;5053651;28;20037;-43
2022/05/05 01:13:41;;;;;;;15.15;11.15;;;4.40;84.70;;;;;;5053516;28;20342;-43
2022/05/05 01:16:09;;;;;;;12.45;10.40;;;4.40;84.60;;;;;;5053346;28;20338;-44
2022/05/05 01:18:40;;;;;;;16.98;12.10;;;4.40;84.70;;;;;;5052674;28;20029;-44
2022/05/05 01:21:10;;;;;;;14.18;10.68;;;4.40;84.70;;;;;;5050594;28;20038;-42
2022/05/05 01:23:38;;;;;;;16.88;12.13;;;4.40;84.60;;;;;;5052838;28;20104;-43
2022/05/05 01:28:52;;;;;;;13.27;10.18;;;4.50;84.80;;;;;;5052447;28;20079;-45
2022/05/05 01:31:19;;;;;;;16.30;10.85;;;4.50;84.40;;;;;;5053880;28;20413;-43
2022/05/05 01:33:48;;;;;;;15.38;10.70;;;4.40;84.40;;;;;;5052522;28;20093;-44
2022/05/05 01:36:13;;;;;;;15.90;10.87;;;4.40;84.40;;;;;;5053784;28;20374;-45
2022/05/05 01:38:41;;;;;;;11.40;10.07;;;4.40;84.60;;;;;;5035290;28;20025;-43
2022/05/05 01:41:13;;;;;;;13.93;11.52;;;4.50;84.70;;;;;;5053522;28;20044;-44
2022/05/05 01:43:43;;;;;;;12.70;10.25;;;4.40;84.50;;;;;;5052712;28;20048;-42
2022/05/05 01:46:09;;;;;;;14.35;10.68;;;4.50;84.60;;;;;;5035800;28;20029;-43
2022/05/05 01:48:36;;;;;;;18.42;10.60;;;4.50;84.40;;;;;;5054201;28;20033;-47
2022/05/05 01:51:04;;;;;;;16.75;10.57;;;4.40;84.50;;;;;;5034190;28;20028;-42
2022/05/05 01:53:36;;;;;;;14.27;10.85;;;4.40;84.60;;;;;;5021371;28;20053;-42
2022/05/05 01:56:11;;;;;;;14.05;10.82;;;4.50;84.60;;;;;;5013503;28;20115;-42
2022/05/05 01:58:41;;;;;;;13.85;10.85;;;4.40;84.40;;;;;;5013737;28;20443;-42
2022/05/05 02:01:10;;;;;;;15.70;9.80;;;4.40;84.50;;;;;;5017080;28;20045;-44
2022/05/05 02:03:39;;;;;;;15.48;11.25;;;4.40;84.60;;;;;;5007164;28;20030;-43
2022/05/05 02:06:07;;;;;;;11.45;9.93;;;4.40;84.40;;;;;;5015629;28;20324;-43
2022/05/05 02:08:35;;;;;;;14.52;10.27;;;4.30;84.50;;;;;;5013281;28;20053;-42
2022/05/05 02:11:01;;;;;;;13.77;10.13;;;4.30;84.60;;;;;;5013368;28;20029;-43
2022/05/05 02:13:28;;;;;;;13.52;10.35;;;4.30;84.50;;;;;;5013360;28;20030;-45
2022/05/05 02:15:55;;;;;;;13.43;10.00;;;4.30;84.50;;;;;;5013676;28;20026;-42
2022/05/05 02:18:22;;;;;;;17.17;11.20;;;4.20;84.40;;;;;;5013816;28;20025;-42
2022/05/05 02:20:49;;;;;;;18.38;11.95;;;4.20;84.40;;;;;;5013317;28;20049;-44
2022/05/05 02:23:21;;;;;;;13.80;10.43;;;4.20;84.60;;;;;;5013588;28;20089;-42
2022/05/05 02:25:46;;;;;;;15.65;10.73;;;4.20;84.50;;;;;;5012475;28;20022;-42
2022/05/05 02:28:15;;;;;;;13.90;11.27;;;4.20;84.60;;;;;;5014426;28;20180;-42
2022/05/05 02:30:44;;;;;;;16.63;9.93;;;4.20;84.80;;;;;;5012094;28;20379;-42
2022/05/05 02:33:11;;;;;;;17.20;12.27;;;4.20;84.70;;;;;;5016364;28;20124;-42
2022/05/05 02:35:38;;;;;;;14.90;11.18;;;4.20;84.90;;;;;;5012046;28;20423;-42
2022/05/05 02:40:52;;;;;;;17.05;12.50;;;4.10;85.00;;;;;;5012731;28;20051;-42
2022/05/05 02:43:19;;;;;;;12.70;10.25;;;4.10;84.90;;;;;;5011219;28;20029;-42
2022/05/05 02:45:46;;;;;;;16.75;12.50;;;4.20;84.90;;;;;;5027324;28;20034;-43
2022/05/05 02:48:11;;;;;;;13.95;11.52;;;4.20;85.00;;;;;;5013288;28;20350;-43
2022/05/05 02:50:38;;;;;;;16.73;13.02;;;4.20;84.90;;;;;;5013680;28;20117;-42
2022/05/05 02:54:47;;;;;;;18.40;12.43;;;4.20;84.80;;;;;;5027612;28;20059;-41
2022/05/05 02:55:50;;;;;;;15.60;10.85;;;4.20;85.00;;;;;;5049906;28;20120;-42
2022/05/05 02:58:17;;;;;;;18.45;12.20;;;4.20;84.90;;;;;;5048228;28;20039;-42
2022/05/05 03:00:44;;;;;;;15.98;12.32;;;4.10;85.00;;;;;;5046621;28;20369;-42
2022/05/05 03:03:13;;;;;;;18.08;11.98;;;4.20;85.20;;;;;;5029522;28;20049;-42
2022/05/05 03:05:40;;;;;;;15.67;10.63;;;4.30;85.30;;;;;;5042172;28;20516;-43
2022/05/05 03:08:07;;;;;;;16.88;11.90;;;4.30;85.10;;;;;;5033630;28;20029;-42
2022/05/05 03:10:37;;;;;;;17.98;11.55;;;4.30;85.00;;;;;;5052058;28;20079;-42
2022/05/05 03:13:04;;;;;;;13.88;10.50;;;4.30;85.10;;;;;;5051209;28;20033;-43
2022/05/05 03:15:31;;;;;;;15.00;10.65;;;4.40;84.90;;;;;;5051796;28;20094;-42
2022/05/05 03:17:58;;;;;;;19.42;12.15;;;4.30;84.90;;;;;;5042568;28;20378;-43
2022/05/05 03:20:25;;;;;;;14.40;11.35;;;4.30;85.00;;;;;;5044805;28;20021;-42
2022/05/05 03:22:52;;;;;;;14.88;11.23;;;4.30;85.00;;;;;;5037459;28;20116;-42
2022/05/05 03:25:20;;;;;;;14.32;11.90;;;4.30;85.30;;;;;;5043243;28;20096;-42
2022/05/05 03:27:47;;;;;;;17.85;10.80;;;4.30;85.10;;;;;;5035092;28;20103;-42
2022/05/05 03:30:14;;;;;;;17.73;12.27;;;4.40;85.30;;;;;;5049610;28;20033;-42
2022/05/05 03:32:40;;;;;;;16.80;12.23;;;4.40;85.40;;;;;;5044405;28;20115;-43
2022/05/05 03:35:08;;;;;;;19.65;12.45;;;4.40;85.40;;;;;;5042560;28;20537;-42
2022/05/05 03:37:38;;;;;;;15.23;11.32;;;4.50;85.40;;;;;;5051895;28;20103;-42
2022/05/05 03:40:05;;;;;;;15.75;11.98;;;4.50;85.40;;;;;;5050766;28;20083;-42
2022/05/05 03:42:34;;;;;;;15.25;12.32;;;4.60;85.50;;;;;;5053574;28;20033;-43
2022/05/05 03:45:00;;;;;;;16.17;12.33;;;4.70;85.40;;;;;;5055675;28;20108;-43
2022/05/05 03:47:26;;;;;;;13.20;11.05;;;4.80;85.50;;;;;;5038488;28;20287;-42
2022/05/05 03:49:54;;;;;;;16.33;12.07;;;4.80;85.40;;;;;;5049997;28;20037;-42
2022/05/05 03:52:20;;;;;;;18.02;13.05;;;4.90;85.50;;;;;;5018759;28;20087;-42
2022/05/05 03:54:50;;;;;;;16.13;11.38;;;4.80;85.30;;;;;;5025594;28;20512;-42
2022/05/05 03:57:17;;;;;;;14.75;11.93;;;4.90;85.40;;;;;;5036467;28;20099;-42
2022/05/05 03:59:43;;;;;;;19.48;13.48;;;4.90;85.30;;;;;;5025277;28;20160;-42
2022/05/05 04:02:10;;;;;;;20.25;12.25;;;4.90;85.50;;;;;;5026465;28;20061;-44
2022/05/05 04:04:37;;;;;;;14.75;12.15;;;4.90;85.30;;;;;;5023781;28;20033;-43
2022/05/05 04:07:04;;;;;;;14.75;11.02;;;5.00;85.40;;;;;;5016624;28;20029;-43
2022/05/05 04:09:31;;;;;;;15.00;11.00;;;5.00;85.50;;;;;;5015569;28;20048;-42
2022/05/05 04:11:56;;;;;;;12.30;9.60;;;5.10;85.30;;;;;;5015577;28;20063;-43
2022/05/05 04:14:22;;;;;;;19.02;11.63;;;5.20;85.10;;;;;;5016366;28;20069;-45
2022/05/05 04:16:49;;;;;;;11.45;10.15;;;5.30;84.90;;;;;;5030736;28;20030;-42
2022/05/05 04:19:18;;;;;;;15.55;10.85;;;5.30;84.90;;;;;;5030130;28;20034;-44
2022/05/05 04:21:43;;;;;;;15.82;11.40;;;5.40;84.70;;;;;;5015133;28;20033;-42
2022/05/05 04:24:10;;;;;;;17.27;10.93;;;5.40;84.70;;;;;;5012948;28;20041;-42
2022/05/05 04:26:37;;;;;;;11.95;10.52;;;5.40;84.70;;;;;;5015224;28;20049;-42
2022/05/05 04:29:06;;;;;;;16.58;10.70;;;5.50;84.50;;;;;;5017304;28;20046;-45
2022/05/05 04:31:36;;;;;;;14.98;11.07;;;5.50;84.50;;;;;;5014728;28;20038;-42
2022/05/05 04:34:04;;;;;;;13.48;10.02;;;5.50;84.20;;;;;;5010756;28;20030;-44
2022/05/05 04:36:34;;;;;;;14.02;10.75;;;5.50;84.20;;;;;;5015392;28;20030;-43
2022/05/05 04:39:06;;;;;;;13.38;10.13;;;5.60;84.40;;;;;;5015247;28;20041;-44
2022/05/05 04:41:33;;;;;;;15.40;12.13;;;5.60;84.40;;;;;;5015048;28;20091;-41
2022/05/05 04:44:00;;;;;;;13.70;11.00;;;5.60;84.30;;;;;;5015175;28;20061;-42
2022/05/05 04:46:26;;;;;;;12.88;10.40;;;5.70;84.50;;;;;;4998786;28;20046;-43
2022/05/05 04:48:56;;;;;;;15.40;10.20;;;5.70;84.40;;;;;;5010433;28;20096;-43
2022/05/05 04:51:23;;;;;;;13.70;10.15;;;5.90;84.30;;;;;;5015260;28;20034;-42
2022/05/05 04:53:52;;;;;;;11.95;10.40;;;5.90;84.20;;;;;;5038331;28;20171;-44
2022/05/05 04:56:19;;;;;;;17.83;12.02;;;5.90;84.20;;;;;;5053499;28;20136;-42
2022/05/05 04:58:46;;;;;;;14.25;10.48;;;6.00;84.10;;;;;;5051367;28;20029;-42
2022/05/05 05:01:13;;;;;;;12.98;11.00;;;6.00;84.10;;;;;;5038717;28;20037;-43
2022/05/05 05:03:39;;;;;;;15.07;10.18;;;6.10;84.10;;;;;;5038364;28;20031;-43
2022/05/05 05:06:09;;;;;;;15.30;10.90;;;6.10;83.60;;;;;;5055288;28;20025;-43
2022/05/05 05:08:36;;;;;;;12.02;10.82;;;6.20;83.70;;;;;;5036059;28;20044;-43
2022/05/05 05:11:06;;;;;;;15.95;11.50;;;6.30;83.50;;;;;;5035942;28;20107;-43
2022/05/05 05:13:35;;;;;;;13.85;10.90;;;6.20;83.10;;;;;;5035754;28;20021;-44
2022/05/05 05:16:03;;;;;;;15.70;11.47;;;6.20;83.10;;;;;;5036334;28;20052;-43
2022/05/05 05:18:30;;;;;;;14.15;11.10;;;6.20;83.20;;;;;;5034919;28;20037;-44
2022/05/05 05:20:57;;;;;;;11.98;10.60;;;6.30;83.10;;;;;;5035507;28;20429;-43
2022/05/05 05:23:24;;;;;;;13.70;11.32;;;6.30;83.10;;;;;;5035706;28;20029;-44
2022/05/05 05:25:50;;;;;;;19.15;13.80;;;6.40;83.20;;;;;;5019503;28;20041;-44
2022/05/05 05:28:17;;;;;;;11.80;10.55;;;6.40;82.80;;;;;;5014503;28;20646;-43
2022/05/05 05:30:44;;;;;;;14.25;10.55;;;6.40;83.10;;;;;;5018023;28;20105;-44
2022/05/05 05:33:11;;;;;;;12.52;10.43;;;6.50;83.20;;;;;;5034333;28;20025;-47
2022/05/05 05:35:40;;;;;;;12.10;10.35;;;6.50;83.00;;;;;;5034615;28;21306;-43
2022/05/05 05:38:07;;;;;;;11.10;9.93;;;6.50;83.10;;;;;;5033804;28;20033;-44
2022/05/05 05:40:34;;;;;;;12.30;11.00;;;6.70;83.00;;;;;;5052366;28;20028;-43
2022/05/05 05:43:03;;;;;;;12.60;10.30;;;6.60;83.10;;;;;;5053437;28;20029;-43
2022/05/05 05:45:30;;;;;;;14.52;10.38;;;6.70;83.20;;;;;;5037127;28;20088;-44
2022/05/05 05:47:56;;;;;;;11.10;9.38;;;6.80;83.50;;;;;;5036710;28;20069;-45
2022/05/05 05:50:23;;;;;;;11.48;9.02;;;6.90;83.50;;;;;;5052771;28;20115;-46
2022/05/05 05:52:49;;;;;;;14.73;10.82;;;7.00;82.70;;;;;;5049487;28;20041;-44
2022/05/05 05:55:16;;;;;;;15.02;9.98;;;7.00;82.60;;;;;;5036941;28;20103;-43
2022/05/05 05:57:42;;;;;;;13.80;10.77;;;7.10;82.60;;;;;;5048230;28;20091;-43
2022/05/05 06:00:12;;;;;;;16.45;10.07;;;7.20;82.70;;;;;;5031976;28;20026;-43
2022/05/05 06:05:25;;;;;;;13.10;8.55;;;7.40;82.10;;;;;;5033477;28;20358;-44
2022/05/05 06:07:57;;;;;;;11.05;8.45;;;7.40;82.00;;;;;;5031873;28;20052;-44
2022/05/05 06:10:24;;;;;;;13.45;8.27;;;7.50;82.20;;;;;;5032482;28;21267;-45
2022/05/05 06:12:51;;;;;;;8.70;7.50;;;7.60;82.20;;;;;;5034257;28;20037;-44
2022/05/05 06:15:18;;;;;;;15.27;8.75;;;7.80;82.00;;;;;;5034263;28;20030;-46
2022/05/05 06:17:44;;;;;;;9.60;7.22;;;7.90;81.40;;;;;;5038696;28;20040;-44
2022/05/05 06:20:14;;;;;;;11.68;7.55;;;8.00;81.40;;;;;;5034206;28;20025;-44
2022/05/05 06:22:41;;;;;;;;;;;8.10;81.20;;;;;;5031440;28;20029;-44
2022/05/05 06:25:11;;;;;;;14.27;7.88;;;8.20;80.80;;;;;;5030805;28;19909;-47
2022/05/05 06:27:41;;;;;;;10.48;6.90;;;8.30;80.50;;;;;;5020361;28;20458;-47
2022/05/05 06:30:13;;;;;;;11.13;7.15;;;8.40;80.40;;;;;;5028554;28;20025;-47
2022/05/05 06:32:42;;;;;;;10.68;8.60;;;8.50;80.20;;;;;;5008983;28;20092;-46
2022/05/05 06:35:12;;;;;;;;;;;8.50;80.40;;;;;;5031890;28;20029;-46
2022/05/05 06:37:38;;;;;;;9.52;7.40;;;8.60;80.30;;;;;;5029941;28;19963;-47
2022/05/05 06:40:08;;;;;;;12.77;7.05;;;8.70;80.00;;;;;;5029555;28;20361;-45
2022/05/05 06:42:35;;;;;;;10.38;6.97;;;8.70;79.80;;;;;;5033691;28;20029;-48
2022/05/05 06:45:03;;;;;;;8.32;6.32;;;8.70;79.50;;;;;;5030317;28;20083;-45
2022/05/05 06:47:30;;;;;;;9.30;7.10;;;8.90;80.10;;;;;;5031442;28;20581;-45
2022/05/05 06:49:57;;;;;;;9.13;7.13;;;8.90;79.70;;;;;;5016314;28;20062;-47
2022/05/05 06:52:22;;;;;;;11.45;6.97;;;8.90;79.70;;;;;;5032335;28;20329;-46
2022/05/05 06:54:48;;;;;;;9.55;6.88;;;8.90;79.80;;;;;;5019031;28;20100;-47
2022/05/05 06:57:14;;;;;;;9.65;7.35;;;8.90;79.80;;;;;;5014331;28;20383;-48
2022/05/05 06:59:41;;;;;;;11.23;8.10;;;9.00;79.90;;;;;;4994125;28;20026;-45
2022/05/05 07:02:12;;;;;;;14.40;9.02;;;9.10;79.60;;;;;;5006873;28;20036;-45
2022/05/05 07:07:23;;;;;;;12.25;8.57;;;9.50;79.70;;;;;;5009208;28;20159;-47
2022/05/05 07:12:38;;;;;;;10.88;7.35;;;9.70;79.10;;;;;;5008434;28;20040;-47
2022/05/05 07:15:04;;;;;;;12.10;7.30;;;9.80;78.00;;;;;;4998456;28;20026;-45
2022/05/05 07:17:30;;;;;;;10.98;6.18;;;9.90;77.00;;;;;;5010284;28;20084;-45
2022/05/05 07:19:58;;;;;;;9.40;5.40;;;10.20;76.80;;;;;;5006085;28;20026;-46
2022/05/05 07:22:25;;;;;;;11.93;7.53;;;10.40;76.60;;;;;;5008078;28;20033;-48
2022/05/05 07:24:52;;;;;;;10.48;7.03;;;10.50;76.00;;;;;;5013876;28;20065;-45
2022/05/05 07:27:17;;;;;;;11.70;5.78;;;10.70;75.90;;;;;;4991013;28;20030;-45
2022/05/05 07:29:46;;;;;;;12.95;6.45;;;10.80;74.50;;;;;;5012799;28;20040;-44
2022/05/05 07:32:15;;;;;;;7.80;4.43;;;11.00;73.70;;;;;;5009028;28;20038;-44
2022/05/05 07:34:42;;;;;;;6.32;3.40;;;11.20;73.90;;;;;;5017195;28;20038;-47
2022/05/05 07:37:12;;;;;;;9.02;3.65;;;11.40;71.20;;;;;;5018171;28;20076;-45
2022/05/05 07:39:39;;;;;;;6.03;3.00;;;11.40;70.10;;;;;;5010039;28;20351;-46
2022/05/05 07:42:08;;;;;;;11.45;4.13;;;11.40;70.40;;;;;;5009368;28;20100;-45
2022/05/05 07:44:34;;;;;;;6.15;3.15;;;11.50;68.80;;;;;;5009119;28;20026;-45
2022/05/05 07:47:02;;;;;;;9.65;3.47;;;11.60;69.20;;;;;;5010122;28;20371;-47
2022/05/05 07:49:29;;;;;;;7.43;3.33;;;11.70;68.10;;;;;;5008665;28;20472;-45
2022/05/05 07:51:56;;;;;;;6.88;3.20;;;11.90;68.60;;;;;;5010735;28;20029;-44
2022/05/05 07:54:39;;;;;;;5.07;2.85;;;12.00;68.00;;;;;;5004484;28;20046;-46
2022/05/05 07:57:12;;;;;;;8.27;3.65;;;12.20;67.90;;;;;;5022280;28;20037;-46
2022/05/05 07:59:45;;;;;;;8.02;3.42;;;12.50;66.60;;;;;;5009548;28;20037;-46
2022/05/05 08:02:14;;;;;;;8.77;3.58;;;12.50;65.20;;;;;;5010172;28;20022;-45
2022/05/05 08:04:41;;;;;;;8.70;3.53;;;12.60;65.40;;;;;;5008776;28;20077;-45
2022/05/05 08:07:11;;;;;;;7.15;2.90;;;12.80;64.90;;;;;;5009607;28;20087;-45
2022/05/05 08:09:39;;;;;;;8.93;3.55;;;12.70;64.30;;;;;;4998324;28;20034;-44
2022/05/05 08:12:07;;;;;;;5.80;3.17;;;12.70;63.90;;;;;;5009165;28;20038;-45
2022/05/05 08:14:34;;;;;;;5.28;2.63;;;12.90;63.80;;;;;;5008411;28;20340;-47
2022/05/05 08:17:01;;;;;;;6.60;3.05;;;13.20;64.20;;;;;;5009514;28;20026;-47
2022/05/05 08:19:30;;;;;;;5.78;3.50;;;13.30;62.60;;;;;;5008536;28;20033;-47
2022/05/05 08:21:57;;;;;;;10.50;3.75;;;13.30;62.00;;;;;;5009690;28;20033;-45
2022/05/05 08:30:07;;;;;;;9.48;3.58;;;13.50;61.70;;;;;;5011974;28;20524;-45
2022/05/05 08:32:33;;;;;;;12.18;4.32;;;13.40;61.50;;;;;;5011750;28;20530;-45
2022/05/05 08:35:00;;;;;;;7.90;3.75;;;13.50;60.60;;;;;;5012575;28;20113;-45
2022/05/05 08:37:26;;;;;;;4.97;2.90;;;13.40;60.30;;;;;;5012604;28;20033;-46
2022/05/05 08:39:53;;;;;;;6.45;2.83;;;13.60;59.70;;;;;;5012236;28;20092;-47
2022/05/05 08:42:20;;;;;;;8.70;2.72;;;13.90;60.60;;;;;;5012327;28;20043;-46
2022/05/05 08:44:46;;;;;;;6.72;3.15;;;14.20;60.70;;;;;;5011684;28;20038;-48
2022/05/05 08:47:16;;;;;;;7.15;3.40;;;14.50;57.50;;;;;;5012078;28;20038;-48
2022/05/05 08:49:43;;;;;;;7.50;3.38;;;14.40;56.30;;;;;;5012001;28;20113;-45
2022/05/05 08:52:16;;;;;;;6.30;3.65;;;14.40;59.20;;;;;;5012236;28;20038;-47
2022/05/05 08:54:44;;;;;;;5.43;3.80;;;14.40;57.80;;;;;;5012113;28;20030;-45
2022/05/05 08:57:12;;;;;;;6.88;3.58;;;14.40;59.10;;;;;;5006744;28;20106;-51
2022/05/05 08:59:39;;;;;;;5.97;3.60;;;14.40;58.50;;;;;;5012066;28;20455;-45
2022/05/05 09:02:07;;;;;;;10.00;4.93;;;14.40;58.70;;;;;;5017716;28;20113;-46
2022/05/05 09:04:34;;;;;;;7.93;3.50;;;14.60;58.20;;;;;;5012797;28;20179;-45
2022/05/05 09:07:00;;;;;;;6.20;3.50;;;15.00;57.10;;;;;;5011808;28;20022;-49
2022/05/05 09:09:28;;;;;;;7.07;2.95;;;15.20;55.20;;;;;;5008428;28;20042;-45
2022/05/05 09:12:09;;;;;;;8.20;3.53;;;14.90;54.60;;;;;;5011831;28;20057;-45
2022/05/05 09:14:41;;;;;;;7.75;3.78;;;14.90;52.90;;;;;;5010185;28;20439;-47
2022/05/05 09:17:10;;;;;;;8.43;3.28;;;14.90;55.70;;;;;;5011092;28;20051;-47
2022/05/05 09:19:43;;;;;;;6.32;3.08;;;14.90;54.50;;;;;;5011572;28;20022;-45
2022/05/05 09:22:11;;;;;;;7.03;2.90;;;14.90;55.00;;;;;;5011171;28;20034;-46
2022/05/05 09:24:43;;;;;;;11.00;5.03;;;15.10;54.20;;;;;;5011056;28;20041;-45
2022/05/05 09:27:20;;;;;;;9.13;4.35;;;15.20;53.20;;;;;;5011472;28;20041;-46
2022/05/05 09:30:06;;;;;;;5.93;2.75;;;14.90;53.70;;;;;;5007384;28;20117;-45
2022/05/05 09:32:41;;;;;;;8.57;3.72;;;15.10;53.40;;;;;;5011687;28;20029;-45
2022/05/05 09:35:12;;;;;;;6.10;2.83;;;15.30;54.20;;;;;;5011264;28;20475;-47
2022/05/05 09:37:49;;;;;;;10.02;3.38;;;15.50;52.30;;;;;;5011060;28;20105;-45
2022/05/05 09:40:18;;;;;;;6.93;2.60;;;15.70;51.60;;;;;;5010249;28;20466;-46
2022/05/05 09:42:52;;;;;;;6.45;2.70;;;15.70;48.70;;;;;;5010780;28;20514;-45
2022/05/05 09:45:36;;;;;;;3.92;2.03;;;15.70;48.20;;;;;;5010805;28;20877;-46
2022/05/05 09:48:05;;;;;;;5.28;1.90;;;15.80;49.60;;;;;;5012992;28;20038;-45
2022/05/05 09:50:34;;;;;;;7.22;2.55;;;15.80;47.80;;;;;;5010601;28;20459;-45
2022/05/05 09:58:37;;;;;;;6.05;2.65;;;16.40;48.00;;;;;;5028731;28;20452;-45
2022/05/05 10:01:10;;;;;;;5.10;2.03;;;16.40;48.50;;;;;;5029623;28;20117;-46
2022/05/05 10:04:00;;;;;;;7.40;2.95;;;16.70;49.80;;;;;;5032964;28;20461;-45
2022/05/05 10:06:37;;;;;;;5.38;2.55;;;16.60;44.80;;;;;;5033441;28;20029;-45
2022/05/05 10:09:12;;;;;;;8.20;2.28;;;17.10;46.50;;;;;;5029964;28;20040;-45
2022/05/05 10:11:40;;;;;;;6.95;2.95;;;17.40;47.10;;;;;;5029747;28;20473;-45
2022/05/05 10:14:09;;;;;;;5.32;2.03;;;17.80;47.80;;;;;;5030384;28;20032;-46
2022/05/05 10:16:42;;;;;;;4.70;2.07;;;18.20;45.90;;;;;;5030442;28;20029;-45
2022/05/05 10:19:10;;;;;;;5.35;2.42;;;18.20;44.00;;;;;;5028869;28;20075;-45
2022/05/05 10:21:54;;;;;;;4.82;2.30;;;17.80;46.00;;;;;;5030592;28;20021;-45
2022/05/05 10:24:27;;;;;;;6.65;3.08;;;17.70;45.60;;;;;;5028917;28;20072;-48
2022/05/05 10:27:01;;;;;;;4.50;2.63;;;17.50;47.40;;;;;;5032366;28;20045;-46
2022/05/05 10:29:44;;;;;;;6.53;2.60;;;17.60;46.90;;;;;;5029758;28;20033;-46
2022/05/05 10:32:19;;;;;;;5.05;2.97;;;17.70;45.60;;;;;;5029609;28;20508;-47
2022/05/05 10:34:53;;;;;;;6.68;3.65;;;17.70;46.50;;;;;;5030880;28;20060;-45
2022/05/05 10:37:31;;;;;;;4.95;2.35;;;17.80;45.30;;;;;;5030110;28;20029;-45
2022/05/05 10:40:15;;;;;;;7.40;3.05;;;17.60;43.50;;;;;;5028240;28;20932;-45
2022/05/05 10:42:59;;;;;;;5.57;3.10;;;17.40;45.20;;;;;;5030512;28;20025;-46
2022/05/05 10:45:27;;;;;;;5.85;3.38;;;17.80;43.60;;;;;;5030001;28;20018;-48
2022/05/05 10:48:04;;;;;;;6.68;3.58;;;17.80;44.90;;;;;;5029457;28;20024;-45
2022/05/05 10:50:50;;;;;;;4.68;2.17;;;17.60;46.40;;;;;;5029493;28;20028;-45
2022/05/05 10:53:37;;;;;;;8.18;4.30;;;17.90;46.50;;;;;;5020280;28;20056;-45
2022/05/05 10:56:24;;;;;;;5.57;4.32;;;18.10;46.70;;;;;;5010472;28;20045;-45
2022/05/05 10:59:07;;;;;;;6.88;3.63;;;17.90;45.50;;;;;;5016529;28;20038;-46
2022/05/05 11:01:45;;;;;;;12.60;5.47;;;17.70;46.70;;;;;;5005587;28;20038;-45
2022/05/05 11:04:23;;;;;;;5.82;4.28;;;17.60;47.20;;;;;;5007591;28;20073;-47
2022/05/05 11:07:20;;;;;;;7.78;4.25;;;17.70;45.30;;;;;;5004743;28;20089;-47
2022/05/05 11:09:46;;;;;;;7.80;4.60;;;17.80;45.70;;;;;;5005723;28;20048;-46
2022/05/05 11:12:24;;;;;;;6.65;4.25;;;18.20;46.50;;;;;;5008300;28;20141;-46
2022/05/05 11:23:49;;;;;;;8.35;4.45;;;18.70;44.50;;;;;;5008952;28;20114;-45
2022/05/05 11:26:17;;;;;;;6.00;3.53;;;18.60;44.40;;;;;;5011913;28;20117;-46
2022/05/05 11:28:45;;;;;;;11.95;4.93;;;18.30;46.10;;;;;;5010000;28;20462;-45
2022/05/05 11:31:26;;;;;;;10.30;3.70;;;18.50;45.80;;;;;;5006418;28;20052;-46
2022/05/05 11:34:11;;;;;;;7.93;4.40;;;18.90;48.20;;;;;;5008675;28;20115;-46
2022/05/05 11:36:41;;;;;;;7.18;4.65;;;18.90;46.70;;;;;;5009250;28;20857;-45
2022/05/05 11:39:09;;;;;;;5.53;3.63;;;18.60;45.10;;;;;;5008632;28;20116;-45
2022/05/05 11:41:36;;;;;;;6.97;3.45;;;18.60;46.30;;;;;;5008567;28;20053;-49
2022/05/05 11:44:17;;;;;;;9.98;4.55;;;18.50;50.50;;;;;;5009272;28;20120;-50
2022/05/05 11:46:44;;;;;;;7.95;4.00;;;18.10;52.90;;;;;;5009627;28;20034;-49
2022/05/05 11:49:12;;;;;;;9.82;4.82;;;17.90;52.90;;;;;;5008891;28;20126;-45
2022/05/05 11:51:37;;;;;;;6.95;4.07;;;17.80;52.20;;;;;;5007404;28;20372;-47
2022/05/05 11:54:11;;;;;;;8.18;4.00;;;17.50;50.80;;;;;;5022239;28;20034;-47
2022/05/05 11:56:46;;;;;;;8.30;3.60;;;17.50;49.50;;;;;;5028464;28;20522;-45
2022/05/05 12:02:18;;;;;;;9.07;3.70;;;16.90;50.30;;;;;;5029339;28;20041;-46
2022/05/05 12:04:54;;;;;;;8.00;4.10;;;16.90;50.90;;;;;;5035084;28;20347;-47
2022/05/05 12:07:24;;;;;;;7.20;3.58;;;16.80;50.60;;;;;;5030679;28;20037;-49
2022/05/05 12:10:08;;;;;;;7.20;3.10;;;16.80;52.50;;;;;;5028312;28;20056;-47
2022/05/05 12:12:37;;;;;;;6.35;3.75;;;16.50;50.80;;;;;;5030425;28;20063;-45
2022/05/05 12:15:07;;;;;;;8.20;4.22;;;16.50;52.10;;;;;;5016729;28;20181;-45
2022/05/05 12:17:57;;;;;;;9.55;4.70;;;16.70;51.10;;;;;;5032763;28;20087;-45
2022/05/05 12:20:28;;;;;;;7.97;4.03;;;16.90;52.80;;;;;;5030743;28;20049;-46
2022/05/05 12:22:57;;;;;;;9.55;4.35;;;16.80;53.00;;;;;;5022086;28;20068;-48
2022/05/05 12:25:25;;;;;;;10.70;3.80;;;16.90;53.80;;;;;;5031252;28;20034;-50
2022/05/05 12:28:00;;;;;;;12.25;3.65;;;17.10;52.30;;;;;;5014754;28;20033;-48
2022/05/05 12:30:44;;;;;;;9.52;3.63;;;17.10;50.20;;;;;;5031397;28;20029;-49
2022/05/05 12:33:13;;;;;;;7.53;3.38;;;16.90;51.70;;;;;;5027330;28;20033;-50
2022/05/05 12:36:00;;;;;;;7.13;2.80;;;16.90;51.70;;;;;;5012638;28;20025;-48
2022/05/05 12:38:33;;;;;;;8.90;3.33;;;17.20;51.10;;;;;;5031716;28;20025;-52
2022/05/05 12:41:08;;;;;;;7.53;3.78;;;17.40;48.90;;;;;;5028700;28;20036;-46
2022/05/05 12:43:35;;;;;;;7.70;3.85;;;17.30;48.40;;;;;;5028220;28;20040;-48
2022/05/05 12:46:05;;;;;;;8.38;3.42;;;17.20;49.40;;;;;;5031471;28;20700;-50
2022/05/05 12:48:37;;;;;;;7.68;3.22;;;16.90;52.20;;;;;;5011652;28;20033;-48
2022/05/05 12:51:15;;;;;;;9.05;3.97;;;16.90;53.10;;;;;;5012100;28;20391;-49
2022/05/05 13:02:05;;;;;;;8.90;3.72;;;17.10;52.20;;;;;;5014180;28;20084;-50
2022/05/05 13:04:32;;;;;;;9.88;4.20;;;16.90;55.30;;;;;;5015870;28;20076;-47
2022/05/05 13:06:59;;;;;;;10.38;3.35;;;16.90;55.10;;;;;;5014805;28;20026;-50
2022/05/05 13:09:26;;;;;;;10.20;3.67;;;16.80;55.40;;;;;;4995810;28;20467;-49
2022/05/05 13:11:53;;;;;;;12.00;4.72;;;16.70;55.70;;;;;;5013481;28;20089;-45
2022/05/05 13:14:21;;;;;;;9.48;4.22;;;16.50;54.90;;;;;;5011700;28;20068;-51
2022/05/05 13:16:49;;;;;;;12.30;4.18;;;16.20;56.50;;;;;;4989482;28;20030;-50
2022/05/05 13:19:16;;;;;;;8.20;3.97;;;16.00;57.70;;;;;;5006138;28;20026;-51
2022/05/05 13:21:42;;;;;;;13.40;3.67;;;15.90;58.00;;;;;;5012522;28;20463;-48
2022/05/05 13:24:10;;;;;;;7.95;4.55;;;15.80;58.80;;;;;;5011405;28;20061;-47
2022/05/05 13:26:45;;;;;;;8.48;4.47;;;15.70;58.00;;;;;;5004851;28;20545;-49
2022/05/05 13:29:11;;;;;;;8.75;4.32;;;15.60;59.10;;;;;;4973440;28;20136;-49
2022/05/05 13:31:38;;;;;;;9.63;4.93;;;15.70;60.50;;;;;;4998074;28;20063;-48
2022/05/05 13:34:05;;;;;;;14.15;7.78;;;15.80;61.00;;;;;;5006032;28;20041;-48
2022/05/05 13:36:41;;;;;;;8.75;5.20;;;15.70;60.90;;;;;;5004819;28;20026;-49
2022/05/05 13:39:08;;;;;;;9.32;5.85;;;15.70;61.80;;;;;;5008803;28;20034;-47
2022/05/05 13:41:40;;;;;;;10.35;5.70;;;15.70;60.60;;;;;;4993918;28;20446;-49
2022/05/05 13:44:07;;;;;;;9.85;5.30;;;15.30;63.20;;;;;;4997607;28;20448;-46